createdAt,value
2022-08-07T00:01:43.952Z,19.40
2022-08-07T00:04:06.803Z,19.41
2022-08-07T00:06:51.048Z,19.43
2022-08-07T00:09:22.377Z,19.37
2022-08-07T00:11:55.351Z,19.35
2022-08-07T00:14:30.232Z,19.31
2022-08-07T00:17:07.597Z,19.36
2022-08-07T00:20:01.103Z,19.44
2022-08-07T00:22:24.637Z,19.27
2022-08-07T00:25:11.046Z,19.17
2022-08-07T00:27:53.485Z,19.03
2022-08-07T00:30:26.983Z,19.08
2022-08-07T00:32:56.889Z,19.06
2022-08-07T00:35:26.159Z,19.08
2022-08-07T00:37:54.516Z,19.10
2022-08-07T00:40:39.060Z,19.04
2022-08-07T00:43:12.857Z,19.06
2022-08-07T00:45:59.649Z,18.83
2022-08-07T00:48:31.761Z,18.93
2022-08-07T00:51:02.567Z,19.06
2022-08-07T00:53:39.010Z,18.93
2022-08-07T00:56:18.207Z,18.74
2022-08-07T00:58:46.826Z,18.74
2022-08-07T01:01:16.303Z,18.80
2022-08-07T01:03:56.181Z,18.59
2022-08-07T01:06:28.698Z,18.82
2022-08-07T01:08:58.549Z,18.64
2022-08-07T01:12:10.005Z,18.60
2022-08-07T01:14:21.084Z,18.62
2022-08-07T01:16:52.874Z,18.57
2022-08-07T01:19:22.738Z,18.50
2022-08-07T01:21:55.198Z,18.52
2022-08-07T01:24:29.432Z,18.50
2022-08-07T01:27:00.651Z,18.52
2022-08-07T01:29:33.771Z,18.41
2022-08-07T01:32:05.387Z,18.37
2022-08-07T01:34:47.415Z,17.80
2022-08-07T01:37:17.450Z,18.15
2022-08-07T01:39:48.487Z,18.01
2022-08-07T01:42:37.586Z,18.22
2022-08-07T01:45:17.809Z,18.05
2022-08-07T01:48:21.629Z,17.94
2022-08-07T01:50:38.241Z,17.90
2022-08-07T01:53:11.811Z,18.03
2022-08-07T01:55:56.847Z,18.13
2022-08-07T01:58:33.301Z,18.15
2022-08-07T02:01:09.900Z,18.12
2022-08-07T02:04:01.349Z,18.22
2022-08-07T02:06:32.686Z,18.21
2022-08-07T02:09:06.511Z,18.18
2022-08-07T02:12:02.654Z,18.23
2022-08-07T02:14:36.666Z,17.89
2022-08-07T02:17:16.593Z,18.11
2022-08-07T02:20:07.771Z,18.10
2022-08-07T02:22:41.457Z,18.14
2022-08-07T02:25:17.285Z,18.13
2022-08-07T02:27:56.065Z,18.09
2022-08-07T02:30:24.669Z,17.98
2022-08-07T02:33:03.842Z,18.08
2022-08-07T02:36:26.876Z,18.15
2022-08-07T02:38:35.693Z,18.09
2022-08-07T02:41:05.877Z,17.95
2022-08-07T02:43:38.919Z,17.96
2022-08-07T02:46:09.195Z,17.98
2022-08-07T02:48:39.104Z,18.08
2022-08-07T02:51:41.691Z,18.12
2022-08-07T02:54:09.605Z,18.01
2022-08-07T02:56:39.710Z,17.90
2022-08-07T02:59:11.067Z,17.87
2022-08-07T03:01:41.455Z,17.75
2022-08-07T03:04:16.300Z,17.48
2022-08-07T03:06:48.338Z,17.78
2022-08-07T03:09:43.896Z,17.84
2022-08-07T03:12:14.222Z,17.61
2022-08-07T03:14:56.332Z,17.68
2022-08-07T03:17:24.616Z,17.56
2022-08-07T03:19:56.290Z,17.70
2022-08-07T03:22:32.978Z,17.83
2022-08-07T03:25:01.324Z,17.68
2022-08-07T03:27:58.907Z,17.61
2022-08-07T03:30:25.221Z,17.61
2022-08-07T03:32:59.352Z,17.49
2022-08-07T03:35:43.407Z,17.56
2022-08-07T03:38:21.363Z,17.20
2022-08-07T03:41:01.349Z,17.43
2022-08-07T03:43:32.371Z,17.45
2022-08-07T03:46:04.082Z,17.46
2022-08-07T03:48:45.531Z,17.34
2022-08-07T03:51:46.780Z,17.41
2022-08-07T03:54:35.182Z,17.46
2022-08-07T03:57:07.469Z,17.44
2022-08-07T03:59:36.928Z,17.45
2022-08-07T04:02:14.812Z,17.35
2022-08-07T04:04:43.031Z,17.38
2022-08-07T04:07:17.409Z,17.38
2022-08-07T04:09:50.210Z,17.29
2022-08-07T04:12:28.961Z,17.35
2022-08-07T04:15:00.489Z,17.26
2022-08-07T04:18:56.261Z,17.35
2022-08-07T04:20:21.816Z,17.37
2022-08-07T04:22:53.748Z,17.36
2022-08-07T04:25:30.370Z,17.32
2022-08-07T04:28:05.109Z,17.39
2022-08-07T04:30:55.634Z,17.44
2022-08-07T04:33:28.379Z,17.50
2022-08-07T04:35:56.837Z,17.45
2022-08-07T04:38:28.775Z,17.57
2022-08-07T04:40:58.035Z,17.53
2022-08-07T04:44:09.907Z,17.51
2022-08-07T04:47:08.182Z,17.53
2022-08-07T04:50:03.924Z,17.64
2022-08-07T04:52:54.454Z,17.63
2022-08-07T04:58:11.029Z,17.71
2022-08-07T04:59:17.020Z,17.69
2022-08-07T05:01:43.214Z,17.87
2022-08-07T05:04:36.142Z,17.93
2022-08-07T05:07:36.510Z,17.97
2022-08-07T05:10:25.182Z,18.07
2022-08-07T05:13:10.024Z,18.12
2022-08-07T05:15:51.263Z,18.17
2022-08-07T05:18:23.896Z,18.28
2022-08-07T05:20:55.087Z,18.35
2022-08-07T05:23:39.091Z,18.41
2022-08-07T05:26:18.798Z,18.52
2022-08-07T05:28:57.365Z,18.62
2022-08-07T05:31:35.261Z,18.70
2022-08-07T05:34:11.032Z,18.68
2022-08-07T05:36:43.799Z,18.74
2022-08-07T05:40:13.746Z,18.91
2022-08-07T05:42:33.233Z,18.91
2022-08-07T05:45:26.344Z,18.97
2022-08-07T05:48:01.609Z,19.15
2022-08-07T05:50:32.010Z,19.12
2022-08-07T05:53:01.978Z,19.22
2022-08-07T05:56:03.869Z,19.35
2022-08-07T05:58:36.133Z,19.46
2022-08-07T06:01:10.492Z,19.45
2022-08-07T06:03:57.189Z,19.65
2022-08-07T06:06:34.619Z,19.73
2022-08-07T06:09:05.714Z,19.90
2022-08-07T06:11:39.213Z,19.92
2022-08-07T06:14:11.446Z,20.08
2022-08-07T06:16:45.224Z,20.14
2022-08-07T06:19:58.112Z,20.13
2022-08-07T06:22:15.858Z,20.25
2022-08-07T06:25:01.223Z,20.46
2022-08-07T06:27:44.415Z,20.63
2022-08-07T06:30:35.273Z,20.76
2022-08-07T06:33:15.731Z,20.89
2022-08-07T06:36:06.130Z,20.97
2022-08-07T06:38:33.330Z,21.05
2022-08-07T06:41:06.988Z,21.19
2022-08-07T06:43:40.091Z,21.28
2022-08-07T06:46:15.693Z,21.26
2022-08-07T06:49:00.839Z,21.63
2022-08-07T06:51:34.943Z,21.71
2022-08-07T06:55:28.312Z,21.76
2022-08-07T06:56:56.461Z,21.57
2022-08-07T07:00:14.843Z,21.78
2022-08-07T07:02:27.081Z,21.76
2022-08-07T07:05:14.920Z,22.20
2022-08-07T07:08:03.907Z,22.33
2022-08-07T07:10:35.625Z,22.60
2022-08-07T07:13:55.680Z,22.82
2022-08-07T07:16:19.691Z,22.67
2022-08-07T07:18:56.073Z,23.06
2022-08-07T07:21:40.106Z,22.97
2022-08-07T07:24:17.394Z,23.24
2022-08-07T07:26:51.718Z,23.24
2022-08-07T07:29:39.573Z,23.57
2022-08-07T07:32:14.062Z,23.70
2022-08-07T07:34:46.161Z,23.95
2022-08-07T07:37:56.150Z,24.10
2022-08-07T07:40:15.168Z,24.04
2022-08-07T07:42:51.391Z,24.02
2022-08-07T07:46:37.704Z,23.95
2022-08-07T07:48:34.796Z,24.17
2022-08-07T07:51:07.918Z,24.32
2022-08-07T07:53:51.368Z,24.50
2022-08-07T07:56:30.058Z,24.61
2022-08-07T07:59:08.170Z,24.84
2022-08-07T08:02:02.666Z,24.00
2022-08-07T08:04:28.735Z,24.30
2022-08-07T08:06:56.495Z,24.41
2022-08-07T08:09:29.846Z,24.71
2022-08-07T08:12:03.082Z,25.12
2022-08-07T08:14:36.548Z,25.05
2022-08-07T08:17:56.389Z,24.88
2022-08-07T08:20:17.570Z,25.19
2022-08-07T08:23:08.213Z,25.00
2022-08-07T08:25:56.982Z,25.41
2022-08-07T08:28:38.032Z,25.33
2022-08-07T08:31:14.792Z,25.60
2022-08-07T08:33:49.584Z,25.85
2022-08-07T08:36:30.022Z,25.91
2022-08-07T08:39:01.978Z,25.52
2022-08-07T08:41:58.386Z,25.71
2022-08-07T08:44:44.979Z,26.10
2022-08-07T08:47:52.651Z,26.10
2022-08-07T08:50:39.272Z,26.46
2022-08-07T08:53:26.450Z,26.35
2022-08-07T08:56:01.145Z,26.58
2022-08-07T08:58:43.842Z,26.44
2022-08-07T09:01:18.506Z,26.31
2022-08-07T09:04:03.991Z,26.58
2022-08-07T09:07:02.341Z,26.61
2022-08-07T09:10:00.927Z,26.75
2022-08-07T09:12:52.969Z,26.73
2022-08-07T09:16:22.376Z,26.64
2022-08-07T09:18:32.618Z,26.58
2022-08-07T09:21:58.320Z,26.90
2022-08-07T09:24:55.522Z,27.00
2022-08-07T09:27:31.113Z,26.77
2022-08-07T09:30:09.385Z,27.13
2022-08-07T09:32:51.098Z,27.25
2022-08-07T09:36:02.675Z,27.45
2022-08-07T09:38:57.159Z,27.19
2022-08-07T09:42:03.023Z,27.21
2022-08-07T09:47:26.146Z,27.34
2022-08-07T09:48:01.140Z,27.19
2022-08-07T09:50:51.439Z,27.17
2022-08-07T09:53:22.452Z,27.44
2022-08-07T09:56:19.926Z,27.67
2022-08-07T09:59:14.977Z,27.55
2022-08-07T10:02:40.625Z,27.63
2022-08-07T10:06:00.067Z,27.78
2022-08-07T10:08:51.338Z,27.91
2022-08-07T10:12:02.013Z,27.90
2022-08-07T10:14:35.266Z,28.18
2022-08-07T10:17:21.781Z,28.16
2022-08-07T10:20:14.826Z,28.30
2022-08-07T10:23:01.973Z,28.23
2022-08-07T10:26:00.569Z,28.50
2022-08-07T10:28:37.395Z,28.55
2022-08-07T10:31:49.974Z,28.53
2022-08-07T10:34:42.876Z,28.88
2022-08-07T10:37:59.960Z,28.86
2022-08-07T10:40:24.642Z,28.86
2022-08-07T10:43:36.001Z,29.13
2022-08-07T10:46:19.501Z,28.85
2022-08-07T10:49:10.240Z,28.75
2022-08-07T10:52:02.234Z,29.07
2022-08-07T10:54:53.543Z,28.83
2022-08-07T10:58:11.177Z,29.04
2022-08-07T11:00:56.457Z,29.03
2022-08-07T11:03:37.867Z,29.38
2022-08-07T11:06:26.670Z,29.37
2022-08-07T11:09:02.230Z,29.20
2022-08-07T11:11:35.876Z,29.53
2022-08-07T11:14:57.126Z,29.42
2022-08-07T11:17:43.607Z,29.54
2022-08-07T11:20:48.262Z,29.29
2022-08-07T11:24:00.343Z,29.67
2022-08-07T11:28:00.924Z,29.98
2022-08-07T11:30:18.373Z,30.11
2022-08-07T11:32:46.088Z,30.56
2022-08-07T11:36:10.987Z,30.54
2022-08-07T11:39:19.570Z,30.25
2022-08-07T11:42:03.200Z,30.46
2022-08-07T11:45:35.271Z,30.02
2022-08-07T11:49:27.784Z,30.77
2022-08-07T11:52:35.735Z,31.39
2022-08-07T11:55:19.025Z,31.39
2022-08-07T11:58:57.073Z,31.89
2022-08-07T12:02:30.143Z,32.83
2022-08-07T12:05:53.988Z,33.52
2022-08-07T12:09:23.630Z,33.54
2022-08-07T12:12:47.821Z,34.35
2022-08-07T12:15:46.171Z,34.49
2022-08-07T12:18:29.647Z,34.95
2022-08-07T12:21:55.648Z,35.59
2022-08-07T12:25:07.778Z,36.50
2022-08-07T12:28:31.586Z,38.34
2022-08-07T12:32:03.851Z,39.44
2022-08-07T12:35:29.293Z,39.58
2022-08-07T12:38:59.947Z,40.63
2022-08-07T12:41:42.879Z,40.33
2022-08-07T12:44:18.330Z,42.09
2022-08-07T12:47:45.049Z,41.18
2022-08-07T12:50:39.509Z,40.35
2022-08-07T12:53:28.476Z,39.46
2022-08-07T12:56:39.550Z,40.58
2022-08-07T12:59:08.657Z,42.30
2022-08-07T13:02:44.032Z,43.61
2022-08-07T13:06:04.873Z,44.39
2022-08-07T13:10:20.115Z,43.36
2022-08-07T13:13:06.129Z,43.43
2022-08-07T13:16:29.458Z,42.21
2022-08-07T13:19:53.280Z,43.80
2022-08-07T13:24:01.138Z,42.17
2022-08-07T13:26:15.995Z,43.69
2022-08-07T13:28:58.891Z,45.53
2022-08-07T13:31:45.913Z,46.17
2022-08-07T13:34:48.595Z,45.08
2022-08-07T13:37:58.496Z,43.99
2022-08-07T13:40:42.239Z,44.88
2022-08-07T13:43:16.051Z,46.09
2022-08-07T13:46:12.319Z,43.52
2022-08-07T13:48:39.130Z,41.96
2022-08-07T13:51:27.165Z,40.72
2022-08-07T13:54:01.937Z,41.25
2022-08-07T13:56:36.238Z,42.94
2022-08-07T13:59:25.685Z,43.69
2022-08-07T14:02:10.310Z,42.36
2022-08-07T14:04:48.924Z,44.73
2022-08-07T14:07:27.303Z,45.70
2022-08-07T14:10:12.451Z,44.04
2022-08-07T14:12:55.681Z,44.17
2022-08-07T14:15:42.245Z,45.75
2022-08-07T14:18:30.219Z,47.62
2022-08-07T14:22:02.519Z,48.58
2022-08-07T14:24:28.385Z,47.73
2022-08-07T14:28:09.385Z,48.98
2022-08-07T14:30:08.146Z,49.54
2022-08-07T14:32:47.820Z,49.50
2022-08-07T14:35:44.914Z,47.02
2022-08-07T14:38:26.231Z,46.81
2022-08-07T14:41:33.868Z,47.18
2022-08-07T14:45:22.502Z,43.94
2022-08-07T14:48:48.396Z,41.78
2022-08-07T14:52:13.749Z,44.19
2022-08-07T14:54:44.778Z,44.46
2022-08-07T14:58:09.266Z,43.21
2022-08-07T15:00:52.925Z,41.98
2022-08-07T15:04:16.941Z,43.01
2022-08-07T15:07:51.354Z,43.64
2022-08-07T15:10:26.943Z,43.95
2022-08-07T15:13:11.346Z,43.09
2022-08-07T15:18:45.390Z,44.80
2022-08-07T15:21:45.035Z,44.43
2022-08-07T15:27:23.040Z,43.82
2022-08-07T15:33:42.674Z,43.59
2022-08-07T15:36:10.802Z,43.02
2022-08-07T15:45:55.467Z,44.41
2022-08-07T15:48:31.823Z,42.78
2022-08-07T15:51:08.574Z,43.19
2022-08-07T15:53:53.313Z,42.54
2022-08-07T15:56:37.478Z,41.37
2022-08-07T15:59:16.277Z,42.21
2022-08-07T16:02:02.582Z,44.05
2022-08-07T16:04:33.657Z,44.91
2022-08-07T16:08:33.089Z,44.15
2022-08-07T16:10:22.099Z,42.92
2022-08-07T16:13:17.649Z,42.25
2022-08-07T16:16:48.493Z,41.62
2022-08-07T16:20:34.054Z,37.16
2022-08-07T16:24:09.104Z,35.91
2022-08-07T16:27:18.083Z,34.98
2022-08-07T16:30:30.511Z,34.21
2022-08-07T16:34:02.320Z,35.00
2022-08-07T16:36:20.059Z,34.59
2022-08-07T16:39:05.947Z,34.41
2022-08-07T16:42:12.797Z,33.55
2022-08-07T16:45:15.202Z,32.97
2022-08-07T16:48:37.686Z,32.22
2022-08-07T16:51:53.980Z,32.56
2022-08-07T16:54:54.874Z,33.18
2022-08-07T16:58:01.686Z,33.00
2022-08-07T17:00:49.479Z,32.97
2022-08-07T17:03:58.105Z,33.06
2022-08-07T17:07:02.912Z,33.00
2022-08-07T17:10:07.153Z,32.74
2022-08-07T17:12:44.293Z,32.71
2022-08-07T17:15:15.605Z,32.82
2022-08-07T17:17:46.921Z,32.37
2022-08-07T17:20:35.482Z,32.78
2022-08-07T17:23:22.775Z,32.68
2022-08-07T17:26:23.632Z,32.29
2022-08-07T17:28:58.626Z,32.29
2022-08-07T17:31:44.166Z,32.25
2022-08-07T17:34:40.907Z,32.44
2022-08-07T17:38:09.595Z,32.46
2022-08-07T17:42:00.585Z,32.06
2022-08-07T17:44:50.390Z,32.43
2022-08-07T17:48:31.127Z,32.49
2022-08-07T17:52:01.191Z,32.37
2022-08-07T17:55:55.689Z,32.13
2022-08-07T17:58:30.398Z,32.09
2022-08-07T18:01:56.776Z,31.84
2022-08-07T18:05:25.794Z,31.50
2022-08-07T18:08:32.697Z,31.33
2022-08-07T18:12:16.110Z,31.15
2022-08-07T18:15:44.653Z,31.14
2022-08-07T18:21:06.352Z,30.98
2022-08-07T18:22:28.952Z,30.82
2022-08-07T18:25:23.791Z,30.78
2022-08-07T18:28:34.239Z,30.73
2022-08-07T18:31:18.480Z,30.63
2022-08-07T18:34:35.878Z,30.47
2022-08-07T18:38:58.724Z,30.10
2022-08-07T18:41:16.994Z,30.04
2022-08-07T18:44:09.050Z,29.82
2022-08-07T18:47:22.652Z,29.59
2022-08-07T18:50:39.128Z,29.59
2022-08-07T18:53:39.252Z,29.40
2022-08-07T18:56:13.290Z,29.30
2022-08-07T18:58:55.317Z,29.04
2022-08-07T19:02:34.196Z,29.09
2022-08-07T19:04:57.907Z,29.03
2022-08-07T19:07:51.697Z,28.85
2022-08-07T19:10:32.001Z,28.81
2022-08-07T19:13:33.581Z,28.67
2022-08-07T19:17:04.706Z,28.38
2022-08-07T19:19:46.060Z,28.51
2022-08-07T19:22:53.975Z,28.39
2022-08-07T19:26:23.075Z,28.00
2022-08-07T19:31:02.941Z,27.99
2022-08-07T19:32:18.670Z,27.95
2022-08-07T19:34:55.225Z,27.85
2022-08-07T19:37:24.270Z,27.70
2022-08-07T19:40:14.196Z,27.63
2022-08-07T19:42:43.152Z,27.51
2022-08-07T19:46:10.075Z,27.26
2022-08-07T19:49:57.111Z,27.22
2022-08-07T19:54:32.449Z,27.17
2022-08-07T19:57:50.884Z,27.04
2022-08-07T19:59:54.428Z,26.87
2022-08-07T20:03:34.751Z,26.79
2022-08-07T20:06:06.164Z,26.72
2022-08-07T20:10:35.527Z,26.58
2022-08-07T20:12:34.406Z,26.54
2022-08-07T20:15:58.866Z,26.40
2022-08-07T20:19:25.033Z,26.08
2022-08-07T20:22:00.267Z,26.06
2022-08-07T20:25:18.371Z,25.96
2022-08-07T20:27:58.545Z,25.96
2022-08-07T20:30:36.511Z,25.82
2022-08-07T20:33:08.909Z,25.72
2022-08-07T20:35:54.394Z,25.61
2022-08-07T20:38:29.450Z,25.51
2022-08-07T20:41:03.895Z,25.42
2022-08-07T20:43:35.486Z,25.35
2022-08-07T20:46:28.666Z,25.29
2022-08-07T20:49:58.423Z,25.07
2022-08-07T20:51:50.324Z,24.98
2022-08-07T20:54:29.615Z,24.83
2022-08-07T20:57:05.122Z,24.81
2022-08-07T21:00:05.036Z,24.75
2022-08-07T21:02:54.521Z,24.64
2022-08-07T21:05:51.298Z,24.56
2022-08-07T21:09:01.067Z,24.32
2022-08-07T21:11:49.978Z,24.29
2022-08-07T21:14:32.135Z,24.20
2022-08-07T21:18:04.070Z,24.25
2022-08-07T21:20:26.862Z,24.08
2022-08-07T21:23:08.656Z,23.55
2022-08-07T21:26:12.225Z,23.70
2022-08-07T21:28:59.949Z,23.72
2022-08-07T21:32:44.178Z,23.65
2022-08-07T21:35:01.031Z,23.52
2022-08-07T21:37:57.982Z,23.46
2022-08-07T21:40:47.522Z,23.44
2022-08-07T21:43:25.482Z,23.23
2022-08-07T21:46:40.162Z,23.23
2022-08-07T21:50:02.005Z,22.82
2022-08-07T21:52:44.506Z,22.94
2022-08-07T21:56:35.839Z,22.82
2022-08-07T22:00:04.970Z,22.65
2022-08-07T22:03:31.452Z,22.45
2022-08-07T22:06:55.854Z,22.11
2022-08-07T22:09:31.520Z,21.80
2022-08-07T22:12:15.330Z,22.02
2022-08-07T22:16:42.301Z,22.04
2022-08-07T22:19:30.011Z,22.00
2022-08-07T22:22:36.724Z,22.00
2022-08-07T22:26:05.916Z,22.04
2022-08-07T22:29:37.838Z,22.00
2022-08-07T22:33:11.988Z,21.94
2022-08-07T22:36:38.782Z,21.44
2022-08-07T22:40:05.160Z,21.52
2022-08-07T22:43:31.480Z,21.52
2022-08-07T22:47:06.470Z,21.62
2022-08-07T22:50:33.640Z,21.60
2022-08-07T22:54:07.050Z,21.57
2022-08-07T22:56:48.740Z,21.46
2022-08-07T22:59:34.568Z,21.51
2022-08-07T23:02:17.400Z,21.38
2022-08-07T23:06:15.277Z,21.51
2022-08-07T23:08:46.208Z,21.35
2022-08-07T23:11:44.161Z,21.26
2022-08-07T23:14:32.548Z,21.13
2022-08-07T23:17:37.858Z,21.09
2022-08-07T23:20:51.406Z,21.15
2022-08-07T23:24:05.740Z,21.14
2022-08-07T23:27:12.614Z,20.98
2022-08-07T23:30:38.838Z,20.85
2022-08-07T23:34:36.142Z,20.77
2022-08-07T23:37:19.085Z,20.76
2022-08-07T23:39:56.677Z,20.83
2022-08-07T23:43:07.646Z,20.69
2022-08-07T23:46:23.931Z,20.66
2022-08-07T23:49:49.854Z,20.76
2022-08-07T23:53:11.795Z,20.60
2022-08-07T23:55:52.026Z,20.66
2022-08-07T23:58:56.174Z,20.53
